Flight Briefing for CPX441

Departure Arrival
Salt Lake City International Airport (KSLC)
Click to view FAA NOTAMS
Chicago/Rockford International Airport (KRFD)
Click to view FAA NOTAMS
Departure Time Arrival Time
N/A N/A
Aircraft Distance
B757-200SF 1031nm
Departure METAR Arrival METAR
KSLC 232354Z 16011KT 10SM SCT060 BKN070 BKN100 10/05 A2982 RMK AO2 RAE24 SLP080 VCSH BINOVC P0000 60019 T01000050 10139 20072 53008 VISNO NW RNWY KRFD 232354Z 30009KT 10SM FEW250 22/09 A3006 RMK AO2 SLP178 T02220094 10233 20211 51005
Suggested Route
RUGGD1 OCS KURSE Q122 FOD BHAWK RFD


View recent IFR Routes data
Notes



Charts and Procedures

Charts for KSLC
No chart available
Charts for KRFD
No chart available

Windy.com Weather Map